sensor_id;sensor_type;location;lat;lon;timestamp;P1;durP1;ratioP1;P2;durP2;ratioP2
45065;SDS011;30830;53.704;10.004;2022-08-19T00:00:11;15.23;;;11.60;;
45065;SDS011;30830;53.704;10.004;2022-08-19T00:02:38;14.90;;;11.90;;
45065;SDS011;30830;53.704;10.004;2022-08-19T00:05:04;16.00;;;12.88;;
45065;SDS011;30830;53.704;10.004;2022-08-19T00:07:30;13.50;;;11.98;;
45065;SDS011;30830;53.704;10.004;2022-08-19T00:09:56;13.05;;;11.75;;
45065;SDS011;30830;53.704;10.004;2022-08-19T00:12:22;15.23;;;12.73;;
45065;SDS011;30830;53.704;10.004;2022-08-19T00:14:47;14.57;;;12.93;;
45065;SDS011;30830;53.704;10.004;2022-08-19T00:17:13;12.93;;;11.27;;
45065;SDS011;30830;53.704;10.004;2022-08-19T00:19:39;16.67;;;12.57;;
45065;SDS011;30830;53.704;10.004;2022-08-19T00:22:05;15.88;;;12.70;;
45065;SDS011;30830;53.704;10.004;2022-08-19T00:24:33;19.38;;;14.10;;
45065;SDS011;30830;53.704;10.004;2022-08-19T00:26:59;20.02;;;15.05;;
45065;SDS011;30830;53.704;10.004;2022-08-19T00:29:26;20.45;;;14.32;;
45065;SDS011;30830;53.704;10.004;2022-08-19T00:31:52;22.25;;;15.05;;
45065;SDS011;30830;53.704;10.004;2022-08-19T00:34:19;17.92;;;15.30;;
45065;SDS011;30830;53.704;10.004;2022-08-19T00:36:46;20.63;;;15.63;;
45065;SDS011;30830;53.704;10.004;2022-08-19T00:39:12;19.17;;;15.98;;
45065;SDS011;30830;53.704;10.004;2022-08-19T00:41:43;20.20;;;15.30;;
45065;SDS011;30830;53.704;10.004;2022-08-19T00:44:12;18.80;;;14.35;;
45065;SDS011;30830;53.704;10.004;2022-08-19T00:46:41;19.67;;;15.50;;
45065;SDS011;30830;53.704;10.004;2022-08-19T00:49:11;21.25;;;16.63;;
45065;SDS011;30830;53.704;10.004;2022-08-19T00:52:00;20.77;;;16.63;;
45065;SDS011;30830;53.704;10.004;2022-08-19T00:54:29;20.83;;;14.95;;
45065;SDS011;30830;53.704;10.004;2022-08-19T00:56:56;22.95;;;17.77;;
45065;SDS011;30830;53.704;10.004;2022-08-19T00:59:24;23.95;;;17.10;;
45065;SDS011;30830;53.704;10.004;2022-08-19T01:01:50;22.23;;;17.02;;
45065;SDS011;30830;53.704;10.004;2022-08-19T01:04:16;24.38;;;18.75;;
45065;SDS011;30830;53.704;10.004;2022-08-19T01:06:41;24.40;;;20.33;;
45065;SDS011;30830;53.704;10.004;2022-08-19T01:09:07;26.52;;;19.70;;
45065;SDS011;30830;53.704;10.004;2022-08-19T01:11:34;22.77;;;16.50;;
45065;SDS011;30830;53.704;10.004;2022-08-19T01:14:03;22.25;;;18.73;;
45065;SDS011;30830;53.704;10.004;2022-08-19T01:16:30;20.52;;;17.17;;
45065;SDS011;30830;53.704;10.004;2022-08-19T01:18:57;20.40;;;15.25;;
45065;SDS011;30830;53.704;10.004;2022-08-19T01:21:31;24.85;;;17.63;;
45065;SDS011;30830;53.704;10.004;2022-08-19T01:24:03;25.38;;;18.67;;
45065;SDS011;30830;53.704;10.004;2022-08-19T01:26:29;23.38;;;18.73;;
45065;SDS011;30830;53.704;10.004;2022-08-19T01:28:56;22.73;;;16.67;;
45065;SDS011;30830;53.704;10.004;2022-08-19T01:31:26;23.77;;;17.65;;
45065;SDS011;30830;53.704;10.004;2022-08-19T01:33:56;27.92;;;19.52;;
45065;SDS011;30830;53.704;10.004;2022-08-19T01:36:31;21.23;;;17.55;;
45065;SDS011;30830;53.704;10.004;2022-08-19T01:39:11;26.48;;;18.88;;
45065;SDS011;30830;53.704;10.004;2022-08-19T01:41:43;27.98;;;19.77;;
45065;SDS011;30830;53.704;10.004;2022-08-19T01:44:09;25.95;;;18.15;;
45065;SDS011;30830;53.704;10.004;2022-08-19T01:46:35;28.35;;;17.95;;
45065;SDS011;30830;53.704;10.004;2022-08-19T01:49:02;20.85;;;16.75;;
45065;SDS011;30830;53.704;10.004;2022-08-19T01:51:29;25.50;;;16.58;;
45065;SDS011;30830;53.704;10.004;2022-08-19T01:53:55;22.30;;;17.95;;
45065;SDS011;30830;53.704;10.004;2022-08-19T01:56:22;24.55;;;17.05;;
45065;SDS011;30830;53.704;10.004;2022-08-19T01:58:58;23.55;;;16.88;;
45065;SDS011;30830;53.704;10.004;2022-08-19T02:01:27;21.60;;;16.90;;
45065;SDS011;30830;53.704;10.004;2022-08-19T02:03:57;24.08;;;17.48;;
45065;SDS011;30830;53.704;10.004;2022-08-19T02:06:23;24.13;;;16.67;;
45065;SDS011;30830;53.704;10.004;2022-08-19T02:08:49;21.85;;;14.93;;
45065;SDS011;30830;53.704;10.004;2022-08-19T02:11:19;14.40;;;12.68;;
45065;SDS011;30830;53.704;10.004;2022-08-19T02:14:05;25.92;;;16.48;;
45065;SDS011;30830;53.704;10.004;2022-08-19T02:16:32;27.88;;;16.95;;
45065;SDS011;30830;53.704;10.004;2022-08-19T02:18:58;28.75;;;18.20;;
45065;SDS011;30830;53.704;10.004;2022-08-19T02:21:25;31.73;;;18.10;;
45065;SDS011;30830;53.704;10.004;2022-08-19T02:23:51;30.85;;;17.83;;
45065;SDS011;30830;53.704;10.004;2022-08-19T02:26:17;30.52;;;17.75;;
45065;SDS011;30830;53.704;10.004;2022-08-19T02:28:44;25.85;;;16.50;;
45065;SDS011;30830;53.704;10.004;2022-08-19T02:31:10;40.00;;;20.58;;
45065;SDS011;30830;53.704;10.004;2022-08-19T02:33:37;31.90;;;19.83;;
45065;SDS011;30830;53.704;10.004;2022-08-19T02:36:04;27.58;;;19.85;;
45065;SDS011;30830;53.704;10.004;2022-08-19T02:38:30;31.83;;;19.40;;
45065;SDS011;30830;53.704;10.004;2022-08-19T02:41:00;32.53;;;19.77;;
45065;SDS011;30830;53.704;10.004;2022-08-19T02:43:28;37.67;;;21.23;;
45065;SDS011;30830;53.704;10.004;2022-08-19T02:45:54;35.80;;;20.60;;
45065;SDS011;30830;53.704;10.004;2022-08-19T02:48:21;35.30;;;19.73;;
45065;SDS011;30830;53.704;10.004;2022-08-19T02:50:48;43.28;;;19.75;;
45065;SDS011;30830;53.704;10.004;2022-08-19T02:53:20;31.17;;;19.48;;
45065;SDS011;30830;53.704;10.004;2022-08-19T02:55:48;27.48;;;17.35;;
45065;SDS011;30830;53.704;10.004;2022-08-19T02:58:15;29.27;;;17.10;;
45065;SDS011;30830;53.704;10.004;2022-08-19T03:00:44;29.33;;;17.10;;
45065;SDS011;30830;53.704;10.004;2022-08-19T03:03:11;27.90;;;17.23;;
45065;SDS011;30830;53.704;10.004;2022-08-19T03:05:38;22.33;;;15.65;;
45065;SDS011;30830;53.704;10.004;2022-08-19T03:08:04;22.52;;;16.33;;
45065;SDS011;30830;53.704;10.004;2022-08-19T03:10:30;25.20;;;15.32;;
45065;SDS011;30830;53.704;10.004;2022-08-19T03:12:57;21.38;;;13.75;;
45065;SDS011;30830;53.704;10.004;2022-08-19T03:15:22;20.52;;;14.70;;
45065;SDS011;30830;53.704;10.004;2022-08-19T03:17:48;17.02;;;14.38;;
45065;SDS011;30830;53.704;10.004;2022-08-19T03:20:14;18.27;;;14.30;;
45065;SDS011;30830;53.704;10.004;2022-08-19T03:22:39;18.27;;;13.70;;
45065;SDS011;30830;53.704;10.004;2022-08-19T03:25:05;22.33;;;14.55;;
45065;SDS011;30830;53.704;10.004;2022-08-19T03:27:31;15.15;;;12.88;;
45065;SDS011;30830;53.704;10.004;2022-08-19T03:29:56;15.77;;;13.05;;
45065;SDS011;30830;53.704;10.004;2022-08-19T03:32:22;19.00;;;13.60;;
45065;SDS011;30830;53.704;10.004;2022-08-19T03:34:47;19.00;;;15.00;;
45065;SDS011;30830;53.704;10.004;2022-08-19T03:37:14;17.98;;;14.00;;
45065;SDS011;30830;53.704;10.004;2022-08-19T03:39:40;15.27;;;12.75;;
45065;SDS011;30830;53.704;10.004;2022-08-19T03:42:07;17.98;;;14.02;;
45065;SDS011;30830;53.704;10.004;2022-08-19T03:44:33;22.48;;;15.48;;
45065;SDS011;30830;53.704;10.004;2022-08-19T03:47:01;21.08;;;15.48;;
45065;SDS011;30830;53.704;10.004;2022-08-19T03:49:27;19.50;;;14.35;;
45065;SDS011;30830;53.704;10.004;2022-08-19T03:51:54;21.67;;;15.30;;
45065;SDS011;30830;53.704;10.004;2022-08-19T03:54:22;22.77;;;15.10;;
45065;SDS011;30830;53.704;10.004;2022-08-19T03:56:49;19.08;;;14.90;;
45065;SDS011;30830;53.704;10.004;2022-08-19T03:59:19;25.77;;;17.33;;
45065;SDS011;30830;53.704;10.004;2022-08-19T04:01:51;30.63;;;17.85;;
45065;SDS011;30830;53.704;10.004;2022-08-19T04:04:21;22.95;;;16.50;;
45065;SDS011;30830;53.704;10.004;2022-08-19T04:06:47;22.73;;;16.00;;
45065;SDS011;30830;53.704;10.004;2022-08-19T04:09:13;22.05;;;15.50;;
45065;SDS011;30830;53.704;10.004;2022-08-19T04:11:46;25.85;;;18.35;;
45065;SDS011;30830;53.704;10.004;2022-08-19T04:14:16;29.70;;;18.45;;
45065;SDS011;30830;53.704;10.004;2022-08-19T04:16:46;33.20;;;20.27;;
45065;SDS011;30830;53.704;10.004;2022-08-19T04:19:13;32.10;;;21.83;;
45065;SDS011;30830;53.704;10.004;2022-08-19T04:21:40;33.78;;;22.13;;
45065;SDS011;30830;53.704;10.004;2022-08-19T04:24:11;31.80;;;20.02;;
45065;SDS011;30830;53.704;10.004;2022-08-19T04:26:37;43.78;;;24.95;;
45065;SDS011;30830;53.704;10.004;2022-08-19T04:29:08;36.00;;;22.58;;
45065;SDS011;30830;53.704;10.004;2022-08-19T04:31:36;36.15;;;22.38;;
45065;SDS011;30830;53.704;10.004;2022-08-19T04:34:04;37.25;;;23.45;;
45065;SDS011;30830;53.704;10.004;2022-08-19T04:36:33;33.60;;;22.40;;
45065;SDS011;30830;53.704;10.004;2022-08-19T04:39:02;36.55;;;22.83;;
45065;SDS011;30830;53.704;10.004;2022-08-19T04:41:44;36.90;;;21.85;;
45065;SDS011;30830;53.704;10.004;2022-08-19T04:44:29;33.53;;;22.02;;
45065;SDS011;30830;53.704;10.004;2022-08-19T04:46:56;32.45;;;21.08;;
45065;SDS011;30830;53.704;10.004;2022-08-19T04:49:22;34.10;;;23.30;;
45065;SDS011;30830;53.704;10.004;2022-08-19T04:51:49;34.15;;;22.98;;
45065;SDS011;30830;53.704;10.004;2022-08-19T04:54:19;38.65;;;24.13;;
45065;SDS011;30830;53.704;10.004;2022-08-19T04:56:47;29.05;;;20.48;;
45065;SDS011;30830;53.704;10.004;2022-08-19T04:59:14;32.40;;;23.27;;
45065;SDS011;30830;53.704;10.004;2022-08-19T05:01:42;37.28;;;22.45;;
45065;SDS011;30830;53.704;10.004;2022-08-19T05:04:08;35.38;;;22.58;;
45065;SDS011;30830;53.704;10.004;2022-08-19T05:06:35;35.08;;;22.88;;
45065;SDS011;30830;53.704;10.004;2022-08-19T05:09:02;38.58;;;22.13;;
45065;SDS011;30830;53.704;10.004;2022-08-19T05:11:31;37.20;;;21.73;;
45065;SDS011;30830;53.704;10.004;2022-08-19T05:14:00;37.65;;;22.30;;
45065;SDS011;30830;53.704;10.004;2022-08-19T05:16:26;36.17;;;21.05;;
45065;SDS011;30830;53.704;10.004;2022-08-19T05:18:52;29.80;;;19.70;;
45065;SDS011;30830;53.704;10.004;2022-08-19T05:21:39;25.30;;;15.93;;
45065;SDS011;30830;53.704;10.004;2022-08-19T05:24:24;32.65;;;19.45;;
45065;SDS011;30830;53.704;10.004;2022-08-19T05:26:51;30.92;;;18.35;;
45065;SDS011;30830;53.704;10.004;2022-08-19T05:29:18;31.58;;;19.25;;
45065;SDS011;30830;53.704;10.004;2022-08-19T05:31:46;32.53;;;18.67;;
45065;SDS011;30830;53.704;10.004;2022-08-19T05:34:14;30.85;;;19.42;;
45065;SDS011;30830;53.704;10.004;2022-08-19T05:36:41;25.55;;;18.25;;
45065;SDS011;30830;53.704;10.004;2022-08-19T05:39:08;28.08;;;18.13;;
45065;SDS011;30830;53.704;10.004;2022-08-19T05:41:40;29.00;;;18.63;;
45065;SDS011;30830;53.704;10.004;2022-08-19T05:44:11;30.92;;;19.50;;
45065;SDS011;30830;53.704;10.004;2022-08-19T05:46:37;34.20;;;20.27;;
45065;SDS011;30830;53.704;10.004;2022-08-19T05:49:04;25.65;;;18.10;;
45065;SDS011;30830;53.704;10.004;2022-08-19T05:51:31;26.88;;;18.20;;
45065;SDS011;30830;53.704;10.004;2022-08-19T05:53:59;25.83;;;18.00;;
45065;SDS011;30830;53.704;10.004;2022-08-19T05:56:25;30.15;;;18.05;;
45065;SDS011;30830;53.704;10.004;2022-08-19T05:58:51;26.70;;;17.27;;
45065;SDS011;30830;53.704;10.004;2022-08-19T06:01:18;24.83;;;17.55;;
45065;SDS011;30830;53.704;10.004;2022-08-19T06:03:44;24.67;;;15.23;;
45065;SDS011;30830;53.704;10.004;2022-08-19T06:06:11;28.85;;;18.38;;
45065;SDS011;30830;53.704;10.004;2022-08-19T06:08:38;26.17;;;17.88;;
45065;SDS011;30830;53.704;10.004;2022-08-19T06:11:14;27.50;;;18.88;;
45065;SDS011;30830;53.704;10.004;2022-08-19T06:13:49;29.02;;;19.50;;
45065;SDS011;30830;53.704;10.004;2022-08-19T06:16:18;26.52;;;18.17;;
45065;SDS011;30830;53.704;10.004;2022-08-19T06:18:50;24.17;;;18.05;;
45065;SDS011;30830;53.704;10.004;2022-08-19T06:21:18;35.80;;;18.42;;
45065;SDS011;30830;53.704;10.004;2022-08-19T06:23:45;23.58;;;17.50;;
45065;SDS011;30830;53.704;10.004;2022-08-19T06:26:12;26.55;;;17.55;;
45065;SDS011;30830;53.704;10.004;2022-08-19T06:28:40;28.20;;;18.05;;
45065;SDS011;30830;53.704;10.004;2022-08-19T06:31:08;23.80;;;17.55;;
45065;SDS011;30830;53.704;10.004;2022-08-19T06:33:34;25.65;;;17.42;;
45065;SDS011;30830;53.704;10.004;2022-08-19T06:36:00;22.92;;;15.77;;
45065;SDS011;30830;53.704;10.004;2022-08-19T06:38:26;24.20;;;16.60;;
45065;SDS011;30830;53.704;10.004;2022-08-19T06:40:59;29.25;;;17.38;;
45065;SDS011;30830;53.704;10.004;2022-08-19T06:43:26;25.52;;;16.83;;
45065;SDS011;30830;53.704;10.004;2022-08-19T06:45:52;20.83;;;15.65;;
45065;SDS011;30830;53.704;10.004;2022-08-19T06:48:17;24.55;;;16.25;;
45065;SDS011;30830;53.704;10.004;2022-08-19T06:50:43;26.67;;;16.92;;
45065;SDS011;30830;53.704;10.004;2022-08-19T06:53:08;24.05;;;17.45;;
45065;SDS011;30830;53.704;10.004;2022-08-19T06:55:34;24.30;;;17.90;;
45065;SDS011;30830;53.704;10.004;2022-08-19T06:58:03;28.42;;;17.88;;
45065;SDS011;30830;53.704;10.004;2022-08-19T07:00:29;25.85;;;16.83;;
45065;SDS011;30830;53.704;10.004;2022-08-19T07:02:55;21.17;;;15.30;;
45065;SDS011;30830;53.704;10.004;2022-08-19T07:05:20;27.00;;;18.63;;
45065;SDS011;30830;53.704;10.004;2022-08-19T07:07:46;22.88;;;16.10;;
45065;SDS011;30830;53.704;10.004;2022-08-19T07:10:12;32.00;;;17.85;;
45065;SDS011;30830;53.704;10.004;2022-08-19T07:12:37;27.88;;;17.15;;
45065;SDS011;30830;53.704;10.004;2022-08-19T07:15:04;23.95;;;17.17;;
45065;SDS011;30830;53.704;10.004;2022-08-19T07:17:31;23.77;;;17.50;;
45065;SDS011;30830;53.704;10.004;2022-08-19T07:19:56;24.65;;;17.48;;
45065;SDS011;30830;53.704;10.004;2022-08-19T07:22:23;25.95;;;18.55;;
45065;SDS011;30830;53.704;10.004;2022-08-19T07:24:49;32.90;;;19.98;;
45065;SDS011;30830;53.704;10.004;2022-08-19T07:27:14;29.17;;;18.00;;
45065;SDS011;30830;53.704;10.004;2022-08-19T07:29:40;31.40;;;18.45;;
45065;SDS011;30830;53.704;10.004;2022-08-19T07:32:06;26.13;;;18.35;;
45065;SDS011;30830;53.704;10.004;2022-08-19T07:34:34;30.33;;;18.38;;
45065;SDS011;30830;53.704;10.004;2022-08-19T07:37:03;24.92;;;18.13;;
45065;SDS011;30830;53.704;10.004;2022-08-19T07:39:30;31.25;;;19.00;;
45065;SDS011;30830;53.704;10.004;2022-08-19T07:41:58;27.65;;;18.95;;
45065;SDS011;30830;53.704;10.004;2022-08-19T07:44:25;31.90;;;19.02;;
45065;SDS011;30830;53.704;10.004;2022-08-19T07:46:53;24.33;;;17.42;;
45065;SDS011;30830;53.704;10.004;2022-08-19T07:49:21;27.02;;;17.85;;
45065;SDS011;30830;53.704;10.004;2022-08-19T07:51:59;23.48;;;17.23;;
45065;SDS011;30830;53.704;10.004;2022-08-19T07:54:28;23.05;;;17.63;;
45065;SDS011;30830;53.704;10.004;2022-08-19T07:56:55;26.75;;;17.90;;
45065;SDS011;30830;53.704;10.004;2022-08-19T07:59:22;26.80;;;17.23;;
45065;SDS011;30830;53.704;10.004;2022-08-19T08:01:48;27.65;;;17.83;;
45065;SDS011;30830;53.704;10.004;2022-08-19T08:04:14;23.67;;;17.92;;
45065;SDS011;30830;53.704;10.004;2022-08-19T08:06:59;29.80;;;18.35;;
45065;SDS011;30830;53.704;10.004;2022-08-19T08:09:44;20.20;;;15.35;;
45065;SDS011;30830;53.704;10.004;2022-08-19T08:12:14;23.10;;;16.85;;
45065;SDS011;30830;53.704;10.004;2022-08-19T08:14:44;28.17;;;17.95;;
45065;SDS011;30830;53.704;10.004;2022-08-19T08:17:12;26.77;;;16.40;;
45065;SDS011;30830;53.704;10.004;2022-08-19T08:19:39;22.95;;;16.77;;
45065;SDS011;30830;53.704;10.004;2022-08-19T08:22:06;22.10;;;14.98;;
45065;SDS011;30830;53.704;10.004;2022-08-19T08:24:32;19.38;;;15.23;;
45065;SDS011;30830;53.704;10.004;2022-08-19T08:26:59;26.42;;;17.60;;
45065;SDS011;30830;53.704;10.004;2022-08-19T08:29:27;29.83;;;16.98;;
45065;SDS011;30830;53.704;10.004;2022-08-19T08:31:54;21.30;;;15.30;;
45065;SDS011;30830;53.704;10.004;2022-08-19T08:34:20;25.73;;;17.52;;
45065;SDS011;30830;53.704;10.004;2022-08-19T08:36:46;25.85;;;16.13;;
45065;SDS011;30830;53.704;10.004;2022-08-19T08:39:12;24.50;;;16.63;;
45065;SDS011;30830;53.704;10.004;2022-08-19T08:41:44;23.13;;;15.48;;
45065;SDS011;30830;53.704;10.004;2022-08-19T08:44:23;19.58;;;14.55;;
45065;SDS011;30830;53.704;10.004;2022-08-19T08:46:59;21.85;;;16.27;;
45065;SDS011;30830;53.704;10.004;2022-08-19T08:52:07;20.60;;;15.63;;
45065;SDS011;30830;53.704;10.004;2022-08-19T08:54:39;21.45;;;15.45;;
45065;SDS011;30830;53.704;10.004;2022-08-19T08:57:10;25.15;;;15.57;;
45065;SDS011;30830;53.704;10.004;2022-08-19T08:59:40;26.10;;;17.58;;
45065;SDS011;30830;53.704;10.004;2022-08-19T09:02:08;21.38;;;17.75;;
45065;SDS011;30830;53.704;10.004;2022-08-19T09:04:35;25.52;;;18.45;;
45065;SDS011;30830;53.704;10.004;2022-08-19T09:08:04;26.88;;;16.70;;
45065;SDS011;30830;53.704;10.004;2022-08-19T09:12:53;24.50;;;16.33;;
45065;SDS011;30830;53.704;10.004;2022-08-19T09:15:32;24.30;;;17.20;;
45065;SDS011;30830;53.704;10.004;2022-08-19T09:18:04;27.17;;;17.00;;
45065;SDS011;30830;53.704;10.004;2022-08-19T09:20:31;28.33;;;17.38;;
45065;SDS011;30830;53.704;10.004;2022-08-19T09:22:57;25.58;;;17.60;;
45065;SDS011;30830;53.704;10.004;2022-08-19T09:25:23;22.17;;;16.55;;
45065;SDS011;30830;53.704;10.004;2022-08-19T09:27:49;25.92;;;17.45;;
45065;SDS011;30830;53.704;10.004;2022-08-19T09:30:27;23.83;;;17.23;;
45065;SDS011;30830;53.704;10.004;2022-08-19T09:32:55;26.75;;;17.13;;
45065;SDS011;30830;53.704;10.004;2022-08-19T09:35:21;22.10;;;17.15;;
45065;SDS011;30830;53.704;10.004;2022-08-19T09:37:48;23.35;;;17.08;;
45065;SDS011;30830;53.704;10.004;2022-08-19T09:40:15;20.73;;;17.30;;
45065;SDS011;30830;53.704;10.004;2022-08-19T09:42:42;30.38;;;17.85;;
45065;SDS011;30830;53.704;10.004;2022-08-19T09:45:12;27.70;;;17.92;;
45065;SDS011;30830;53.704;10.004;2022-08-19T09:47:39;27.52;;;16.92;;
45065;SDS011;30830;53.704;10.004;2022-08-19T09:50:06;28.38;;;17.27;;
45065;SDS011;30830;53.704;10.004;2022-08-19T09:52:33;21.90;;;17.80;;
45065;SDS011;30830;53.704;10.004;2022-08-19T09:55:02;26.65;;;17.35;;
45065;SDS011;30830;53.704;10.004;2022-08-19T09:57:29;22.20;;;17.63;;
45065;SDS011;30830;53.704;10.004;2022-08-19T09:59:55;22.40;;;15.32;;
45065;SDS011;30830;53.704;10.004;2022-08-19T10:02:20;23.33;;;15.82;;
45065;SDS011;30830;53.704;10.004;2022-08-19T10:04:46;18.58;;;15.40;;
45065;SDS011;30830;53.704;10.004;2022-08-19T10:07:30;21.77;;;15.55;;
45065;SDS011;30830;53.704;10.004;2022-08-19T10:09:56;24.42;;;15.60;;
45065;SDS011;30830;53.704;10.004;2022-08-19T10:12:21;22.42;;;15.35;;
45065;SDS011;30830;53.704;10.004;2022-08-19T10:14:47;21.05;;;14.30;;
45065;SDS011;30830;53.704;10.004;2022-08-19T10:17:13;18.17;;;14.90;;
45065;SDS011;30830;53.704;10.004;2022-08-19T10:19:39;20.23;;;14.32;;
45065;SDS011;30830;53.704;10.004;2022-08-19T10:22:06;23.90;;;15.95;;
45065;SDS011;30830;53.704;10.004;2022-08-19T10:24:32;18.13;;;14.73;;
45065;SDS011;30830;53.704;10.004;2022-08-19T10:27:00;18.70;;;15.23;;
45065;SDS011;30830;53.704;10.004;2022-08-19T10:29:31;16.92;;;13.20;;
45065;SDS011;30830;53.704;10.004;2022-08-19T10:32:02;18.55;;;15.38;;
45065;SDS011;30830;53.704;10.004;2022-08-19T10:34:30;21.83;;;14.93;;
45065;SDS011;30830;53.704;10.004;2022-08-19T10:36:56;17.77;;;14.05;;
45065;SDS011;30830;53.704;10.004;2022-08-19T10:39:22;19.23;;;15.15;;
45065;SDS011;30830;53.704;10.004;2022-08-19T10:41:48;17.30;;;14.23;;
45065;SDS011;30830;53.704;10.004;2022-08-19T10:44:14;19.25;;;15.10;;
45065;SDS011;30830;53.704;10.004;2022-08-19T10:46:41;16.67;;;13.60;;
45065;SDS011;30830;53.704;10.004;2022-08-19T10:49:12;17.73;;;13.80;;
45065;SDS011;30830;53.704;10.004;2022-08-19T10:51:39;16.67;;;13.02;;
45065;SDS011;30830;53.704;10.004;2022-08-19T10:54:23;18.55;;;13.43;;
45065;SDS011;30830;53.704;10.004;2022-08-19T10:57:09;18.20;;;14.38;;
45065;SDS011;30830;53.704;10.004;2022-08-19T10:59:35;18.60;;;13.82;;
45065;SDS011;30830;53.704;10.004;2022-08-19T11:02:01;15.77;;;13.57;;
45065;SDS011;30830;53.704;10.004;2022-08-19T11:04:28;16.00;;;13.18;;
45065;SDS011;30830;53.704;10.004;2022-08-19T11:06:53;17.92;;;14.07;;
45065;SDS011;30830;53.704;10.004;2022-08-19T11:09:21;17.48;;;13.00;;
45065;SDS011;30830;53.704;10.004;2022-08-19T11:11:54;17.75;;;11.95;;
45065;SDS011;30830;53.704;10.004;2022-08-19T11:14:21;16.35;;;12.35;;
45065;SDS011;30830;53.704;10.004;2022-08-19T11:16:49;19.23;;;14.07;;
45065;SDS011;30830;53.704;10.004;2022-08-19T11:19:16;16.90;;;15.05;;
45065;SDS011;30830;53.704;10.004;2022-08-19T11:21:44;22.08;;;14.65;;
45065;SDS011;30830;53.704;10.004;2022-08-19T11:24:13;13.95;;;12.30;;
45065;SDS011;30830;53.704;10.004;2022-08-19T11:26:41;15.63;;;12.20;;
45065;SDS011;30830;53.704;10.004;2022-08-19T11:29:09;14.13;;;11.60;;
45065;SDS011;30830;53.704;10.004;2022-08-19T11:31:37;14.10;;;12.30;;
45065;SDS011;30830;53.704;10.004;2022-08-19T11:34:05;15.35;;;12.25;;
45065;SDS011;30830;53.704;10.004;2022-08-19T11:36:32;14.18;;;11.50;;
45065;SDS011;30830;53.704;10.004;2022-08-19T11:38:59;13.07;;;11.65;;
45065;SDS011;30830;53.704;10.004;2022-08-19T11:41:26;13.10;;;10.93;;
45065;SDS011;30830;53.704;10.004;2022-08-19T11:43:52;15.10;;;10.60;;
45065;SDS011;30830;53.704;10.004;2022-08-19T11:46:21;14.77;;;11.98;;
45065;SDS011;30830;53.704;10.004;2022-08-19T11:48:48;15.65;;;10.20;;
45065;SDS011;30830;53.704;10.004;2022-08-19T11:51:17;12.50;;;11.27;;
45065;SDS011;30830;53.704;10.004;2022-08-19T11:53:45;13.63;;;10.82;;
45065;SDS011;30830;53.704;10.004;2022-08-19T11:56:11;13.95;;;12.38;;
45065;SDS011;30830;53.704;10.004;2022-08-19T11:58:37;12.45;;;10.07;;
45065;SDS011;30830;53.704;10.004;2022-08-19T12:01:10;14.80;;;11.10;;
45065;SDS011;30830;53.704;10.004;2022-08-19T12:03:38;12.13;;;10.40;;
45065;SDS011;30830;53.704;10.004;2022-08-19T12:06:05;19.95;;;10.15;;
45065;SDS011;30830;53.704;10.004;2022-08-19T12:08:31;15.07;;;11.73;;
45065;SDS011;30830;53.704;10.004;2022-08-19T12:10:57;14.23;;;11.50;;
45065;SDS011;30830;53.704;10.004;2022-08-19T12:13:26;13.48;;;10.82;;
45065;SDS011;30830;53.704;10.004;2022-08-19T12:15:52;13.68;;;11.23;;
45065;SDS011;30830;53.704;10.004;2022-08-19T12:18:18;13.05;;;11.20;;
45065;SDS011;30830;53.704;10.004;2022-08-19T12:20:44;15.07;;;11.75;;
45065;SDS011;30830;53.704;10.004;2022-08-19T12:23:12;14.13;;;11.10;;
45065;SDS011;30830;53.704;10.004;2022-08-19T12:25:43;15.25;;;12.43;;
45065;SDS011;30830;53.704;10.004;2022-08-19T12:28:16;17.55;;;12.90;;
45065;SDS011;30830;53.704;10.004;2022-08-19T12:30:43;12.40;;;11.13;;
45065;SDS011;30830;53.704;10.004;2022-08-19T12:33:09;14.15;;;12.68;;
45065;SDS011;30830;53.704;10.004;2022-08-19T12:35:34;18.17;;;10.50;;
45065;SDS011;30830;53.704;10.004;2022-08-19T12:38:01;17.60;;;11.82;;
45065;SDS011;30830;53.704;10.004;2022-08-19T12:40:27;13.32;;;11.30;;
45065;SDS011;30830;53.704;10.004;2022-08-19T12:42:53;15.00;;;12.63;;
45065;SDS011;30830;53.704;10.004;2022-08-19T12:45:19;12.98;;;11.63;;
45065;SDS011;30830;53.704;10.004;2022-08-19T12:47:45;14.70;;;13.00;;
45065;SDS011;30830;53.704;10.004;2022-08-19T12:50:11;13.65;;;12.25;;
45065;SDS011;30830;53.704;10.004;2022-08-19T12:52:37;21.58;;;12.50;;
45065;SDS011;30830;53.704;10.004;2022-08-19T12:55:03;14.80;;;12.30;;
45065;SDS011;30830;53.704;10.004;2022-08-19T12:57:31;14.13;;;12.30;;
45065;SDS011;30830;53.704;10.004;2022-08-19T13:00:16;15.35;;;12.55;;
45065;SDS011;30830;53.704;10.004;2022-08-19T13:02:47;12.27;;;10.70;;
45065;SDS011;30830;53.704;10.004;2022-08-19T13:05:16;12.38;;;10.68;;
45065;SDS011;30830;53.704;10.004;2022-08-19T13:07:48;10.27;;;9.18;;
45065;SDS011;30830;53.704;10.004;2022-08-19T13:10:16;11.55;;;10.35;;
45065;SDS011;30830;53.704;10.004;2022-08-19T13:12:44;13.10;;;9.48;;
45065;SDS011;30830;53.704;10.004;2022-08-19T13:15:12;11.23;;;10.10;;
45065;SDS011;30830;53.704;10.004;2022-08-19T13:17:39;12.68;;;11.07;;
45065;SDS011;30830;53.704;10.004;2022-08-19T13:20:06;11.73;;;10.52;;
45065;SDS011;30830;53.704;10.004;2022-08-19T13:22:34;12.35;;;10.98;;
45065;SDS011;30830;53.704;10.004;2022-08-19T13:25:01;11.55;;;10.35;;
45065;SDS011;30830;53.704;10.004;2022-08-19T13:27:28;11.20;;;10.20;;
45065;SDS011;30830;53.704;10.004;2022-08-19T13:29:54;10.57;;;9.38;;
45065;SDS011;30830;53.704;10.004;2022-08-19T13:32:38;9.93;;;9.02;;
45065;SDS011;30830;53.704;10.004;2022-08-19T13:35:22;10.43;;;9.05;;
45065;SDS011;30830;53.704;10.004;2022-08-19T13:37:48;11.70;;;9.80;;
45065;SDS011;30830;53.704;10.004;2022-08-19T13:40:15;11.27;;;10.07;;
45065;SDS011;30830;53.704;10.004;2022-08-19T13:42:44;9.15;;;8.25;;
45065;SDS011;30830;53.704;10.004;2022-08-19T13:45:12;8.48;;;7.68;;
45065;SDS011;30830;53.704;10.004;2022-08-19T13:47:39;10.50;;;9.25;;
45065;SDS011;30830;53.704;10.004;2022-08-19T13:50:08;10.65;;;9.48;;
45065;SDS011;30830;53.704;10.004;2022-08-19T13:52:39;8.43;;;7.50;;
45065;SDS011;30830;53.704;10.004;2022-08-19T13:55:05;9.25;;;7.85;;
45065;SDS011;30830;53.704;10.004;2022-08-19T13:57:31;8.57;;;7.78;;
45065;SDS011;30830;53.704;10.004;2022-08-19T13:59:57;10.32;;;9.30;;
45065;SDS011;30830;53.704;10.004;2022-08-19T14:02:23;11.00;;;9.05;;
45065;SDS011;30830;53.704;10.004;2022-08-19T14:04:51;12.18;;;9.48;;
45065;SDS011;30830;53.704;10.004;2022-08-19T14:07:16;9.82;;;8.57;;
45065;SDS011;30830;53.704;10.004;2022-08-19T14:09:42;9.70;;;8.77;;
45065;SDS011;30830;53.704;10.004;2022-08-19T14:12:07;9.40;;;8.50;;
45065;SDS011;30830;53.704;10.004;2022-08-19T14:14:37;8.88;;;7.97;;
45065;SDS011;30830;53.704;10.004;2022-08-19T14:17:06;9.32;;;8.43;;
45065;SDS011;30830;53.704;10.004;2022-08-19T14:19:33;10.27;;;9.27;;
45065;SDS011;30830;53.704;10.004;2022-08-19T14:21:58;10.77;;;9.07;;